Time;durP1;ratioP1;P1;durP2;ratioP2;P2;SDS_P1;SDS_P2;PMS_P1;PMS_P2;Temp;Humidity;BMP_temperature;BMP_pressure;BME280_temperature;BME280_humidity;BME280_pressure;Samples;Min_cycle;Max_cycle;Signal;HPM_P1;HPM_P2
2021/11/30 00:01:53;;;;;;;9.83;7.00;;;2.30;99.90;;;;;;4995156;28;20461;-70
2021/11/30 00:04:18;;;;;;;12.17;8.60;;;2.30;99.90;;;;;;4997042;28;21005;-70
2021/11/30 00:06:45;;;;;;;9.47;7.93;;;2.30;99.90;;;;;;5002230;28;20235;-69
2021/11/30 00:12:01;;;;;;;9.87;7.57;;;2.30;99.90;;;;;;5008448;28;20430;-70
2021/11/30 00:14:28;;;;;;;8.53;7.47;;;2.30;99.90;;;;;;4994488;28;20442;-69
2021/11/30 00:16:54;;;;;;;9.33;7.57;;;2.30;99.90;;;;;;4999089;28;20484;-71
2021/11/30 00:19:19;;;;;;;7.17;6.43;;;2.30;99.90;;;;;;4982136;28;20422;-69
2021/11/30 00:21:45;;;;;;;9.70;7.30;;;2.30;99.90;;;;;;4997535;28;20531;-69
2021/11/30 00:24:10;;;;;;;10.80;7.07;;;2.20;99.90;;;;;;4995652;28;20180;-69
2021/11/30 00:26:36;;;;;;;11.60;5.90;;;2.20;99.90;;;;;;4998012;28;20246;-69
2021/11/30 00:29:02;;;;;;;8.50;6.63;;;2.20;99.90;;;;;;5004713;28;20254;-69
2021/11/30 00:31:27;;;;;;;9.30;6.47;;;2.20;99.90;;;;;;4999853;28;20191;-69
2021/11/30 00:33:53;;;;;;;9.00;6.97;;;2.10;99.90;;;;;;4995329;28;20441;-71
2021/11/30 00:36:20;;;;;;;9.53;8.50;;;2.10;99.90;;;;;;4994466;28;20631;-69
2021/11/30 00:38:46;;;;;;;8.23;6.23;;;2.10;99.90;;;;;;4998319;28;20167;-70
2021/11/30 00:41:11;;;;;;;9.07;6.80;;;2.10;99.90;;;;;;5009879;28;20514;-69
2021/11/30 00:43:38;;;;;;;7.70;6.13;;;2.10;99.90;;;;;;5007943;28;20179;-69
2021/11/30 00:46:28;;;;;;;8.40;7.23;;;2.10;99.90;;;;;;4995838;28;20239;-69
2021/11/30 00:48:53;;;;;;;6.43;5.83;;;2.10;99.90;;;;;;4998904;28;20434;-69
2021/11/30 00:51:20;;;;;;;9.30;5.87;;;2.10;99.90;;;;;;5014613;28;20440;-69
2021/11/30 00:53:48;;;;;;;7.57;5.87;;;2.20;99.90;;;;;;5005116;28;20209;-69
2021/11/30 00:56:15;;;;;;;6.47;5.30;;;2.20;99.90;;;;;;5001743;28;20470;-69
2021/11/30 00:58:41;;;;;;;8.00;5.80;;;2.20;99.90;;;;;;4996297;28;20943;-68
2021/11/30 01:01:07;;;;;;;6.53;4.93;;;2.20;99.90;;;;;;4997083;28;20435;-68
2021/11/30 01:03:33;;;;;;;7.80;5.30;;;2.20;99.90;;;;;;4994044;28;20485;-69
2021/11/30 01:05:59;;;;;;;6.40;5.63;;;2.20;99.90;;;;;;4995132;28;20210;-69
2021/11/30 01:08:24;;;;;;;4.90;4.47;;;2.20;99.90;;;;;;5003763;28;20430;-69
2021/11/30 01:10:51;;;;;;;5.93;5.33;;;2.20;99.90;;;;;;4994671;28;20215;-70
2021/11/30 01:13:18;;;;;;;9.00;5.83;;;2.10;99.90;;;;;;4995241;28;20183;-70
2021/11/30 01:15:44;;;;;;;5.37;4.47;;;2.20;99.90;;;;;;4995164;28;20553;-69
2021/11/30 01:18:10;;;;;;;8.73;5.90;;;2.20;99.90;;;;;;5011384;28;20465;-69
2021/11/30 01:20:36;;;;;;;7.20;4.97;;;2.20;99.90;;;;;;4998911;28;20179;-69
2021/11/30 01:23:02;;;;;;;6.87;4.93;;;2.20;99.90;;;;;;5000432;28;20438;-69
2021/11/30 01:25:28;;;;;;;6.80;5.43;;;2.20;99.90;;;;;;4993780;28;20471;-70
2021/11/30 01:27:54;;;;;;;6.33;4.40;;;2.20;99.90;;;;;;4993967;28;20481;-69
2021/11/30 01:30:19;;;;;;;6.63;5.00;;;2.30;99.90;;;;;;4992956;28;20176;-69
2021/11/30 01:32:46;;;;;;;5.67;5.07;;;2.30;99.90;;;;;;5002822;28;20199;-69
2021/11/30 01:35:13;;;;;;;5.80;4.37;;;2.30;99.90;;;;;;4995264;28;20211;-69
2021/11/30 01:37:40;;;;;;;4.97;3.90;;;2.30;99.90;;;;;;4993015;28;20446;-70
2021/11/30 01:40:07;;;;;;;5.87;4.60;;;2.30;99.90;;;;;;4992827;28;20469;-69
2021/11/30 01:42:34;;;;;;;6.40;4.50;;;2.20;99.90;;;;;;4993869;28;20510;-69
2021/11/30 01:45:08;;;;;;;5.10;4.27;;;2.20;99.90;;;;;;4994439;28;20458;-69
2021/11/30 01:50:06;;;;;;;4.50;4.10;;;2.20;99.90;;;;;;4994591;28;20451;-69
2021/11/30 01:52:32;;;;;;;4.40;4.00;;;2.30;99.90;;;;;;4998627;28;20446;-69
2021/11/30 01:54:58;;;;;;;4.47;4.07;;;2.30;99.90;;;;;;5003315;28;20462;-71
2021/11/30 01:57:25;;;;;;;5.00;4.50;;;2.30;99.90;;;;;;4995270;28;20172;-69
2021/11/30 01:59:53;;;;;;;6.60;3.63;;;2.30;99.90;;;;;;4993747;28;20258;-69
2021/11/30 02:02:19;;;;;;;4.63;3.50;;;2.30;99.90;;;;;;4996493;28;20434;-70
2021/11/30 02:04:45;;;;;;;4.83;3.97;;;2.30;99.90;;;;;;4993333;28;20987;-69
2021/11/30 02:07:11;;;;;;;4.20;3.50;;;2.30;99.90;;;;;;5001243;28;20437;-69
2021/11/30 02:09:38;;;;;;;5.50;3.97;;;2.20;99.90;;;;;;5007755;28;20175;-69
2021/11/30 02:12:04;;;;;;;5.83;4.47;;;2.20;99.90;;;;;;5000070;28;20187;-70
2021/11/30 02:14:32;;;;;;;6.20;4.00;;;2.20;99.90;;;;;;4994439;28;20465;-70
2021/11/30 02:16:58;;;;;;;3.63;3.33;;;2.20;99.90;;;;;;5002848;28;20434;-69
2021/11/30 02:19:24;;;;;;;4.17;3.77;;;2.20;99.90;;;;;;4999355;28;20430;-69
2021/11/30 02:21:50;;;;;;;4.13;3.40;;;2.20;99.90;;;;;;4999963;28;20811;-70
2021/11/30 02:24:16;;;;;;;5.40;3.67;;;2.20;99.90;;;;;;5009407;28;20250;-69
2021/11/30 02:26:41;;;;;;;4.80;3.77;;;2.20;99.90;;;;;;4992730;28;20477;-69
2021/11/30 02:29:09;;;;;;;8.27;3.57;;;2.20;99.90;;;;;;5002152;28;20652;-70
2021/11/30 02:31:44;;;;;;;4.37;3.50;;;2.20;99.90;;;;;;5000727;28;20696;-69
2021/11/30 02:34:10;;;;;;;4.87;3.10;;;2.20;99.90;;;;;;4991667;28;20436;-69
2021/11/30 02:36:49;;;;;;;7.40;3.93;;;2.10;99.90;;;;;;4992783;28;20819;-69
2021/11/30 02:39:17;;;;;;;3.50;3.20;;;2.10;99.90;;;;;;4991398;28;20175;-69
2021/11/30 02:41:44;;;;;;;5.10;3.47;;;2.10;99.90;;;;;;4997847;28;20469;-69
2021/11/30 02:44:13;;;;;;;5.00;3.90;;;2.10;99.90;;;;;;4992706;28;20439;-69
2021/11/30 02:46:41;;;;;;;7.77;3.30;;;2.00;99.90;;;;;;5003264;28;20884;-69
2021/11/30 02:49:10;;;;;;;4.30;3.70;;;2.00;99.90;;;;;;4992920;28;20957;-69
2021/11/30 02:51:37;;;;;;;5.33;3.43;;;2.00;99.90;;;;;;5000914;28;20434;-69
2021/11/30 02:54:11;;;;;;;3.03;2.80;;;2.00;99.90;;;;;;5000371;28;20501;-69
2021/11/30 02:56:46;;;;;;;4.50;3.73;;;2.00;99.90;;;;;;4992741;28;20527;-69
2021/11/30 02:59:11;;;;;;;4.50;3.07;;;2.00;99.90;;;;;;4992776;28;20931;-70
2021/11/30 03:01:41;;;;;;;4.80;2.93;;;2.00;99.90;;;;;;4999590;28;20433;-68
2021/11/30 03:04:13;;;;;;;8.83;3.70;;;2.00;99.90;;;;;;4987185;28;20172;-69
2021/11/30 03:06:40;;;;;;;9.30;3.50;;;2.00;99.90;;;;;;5004222;28;20496;-70
2021/11/30 03:09:06;;;;;;;3.33;3.07;;;2.00;99.90;;;;;;5000332;28;20431;-69
2021/11/30 03:11:31;;;;;;;5.17;3.83;;;1.90;99.90;;;;;;5000762;28;20808;-69
2021/11/30 03:13:57;;;;;;;4.63;3.30;;;1.90;99.90;;;;;;5004082;28;20817;-70
2021/11/30 03:16:22;;;;;;;4.90;3.70;;;1.90;99.90;;;;;;4991959;28;20234;-70
2021/11/30 03:18:48;;;;;;;8.47;3.03;;;1.90;99.90;;;;;;4997721;28;20640;-69
2021/11/30 03:21:14;;;;;;;4.60;3.27;;;1.90;99.90;;;;;;4991858;28;20230;-70
2021/11/30 03:23:41;;;;;;;3.10;2.80;;;1.90;99.90;;;;;;4992049;28;20179;-70
2021/11/30 03:26:07;;;;;;;4.40;3.50;;;1.90;99.90;;;;;;4996828;28;20298;-69
2021/11/30 03:28:33;;;;;;;3.80;2.93;;;1.90;99.90;;;;;;4998567;28;20517;-69
2021/11/30 03:31:07;;;;;;;4.00;2.90;;;1.90;99.90;;;;;;5008098;28;20637;-70
2021/11/30 03:36:18;;;;;;;3.60;2.70;;;1.90;99.90;;;;;;4997288;28;20955;-69
2021/11/30 03:38:43;;;;;;;5.40;3.70;;;1.90;99.90;;;;;;4996009;28;20438;-69
2021/11/30 03:41:09;;;;;;;3.03;2.77;;;1.90;99.90;;;;;;4999281;28;20427;-69
2021/11/30 03:43:35;;;;;;;3.67;2.60;;;1.90;99.90;;;;;;5007871;28;20194;-69
2021/11/30 03:46:01;;;;;;;3.47;2.63;;;1.90;99.90;;;;;;5009760;28;20952;-69
2021/11/30 03:48:27;;;;;;;5.97;2.90;;;2.00;99.90;;;;;;4996581;28;20183;-69
2021/11/30 03:50:53;;;;;;;6.33;3.17;;;2.00;99.90;;;;;;4995761;28;20186;-69
2021/11/30 03:53:18;;;;;;;2.63;2.43;;;2.00;99.90;;;;;;4999420;28;20434;-69
2021/11/30 03:55:45;;;;;;;5.70;3.57;;;2.00;99.90;;;;;;4995121;28;20227;-69
2021/11/30 03:58:11;;;;;;;5.23;3.00;;;2.00;99.90;;;;;;4999281;28;20429;-69
2021/11/30 04:00:36;;;;;;;3.97;2.77;;;2.00;99.90;;;;;;5007239;28;20266;-69
2021/11/30 04:03:03;;;;;;;6.43;3.10;;;2.00;99.90;;;;;;4995600;28;20180;-69
2021/11/30 04:05:29;;;;;;;6.70;3.83;;;2.00;99.90;;;;;;5008149;28;20241;-70
2021/11/30 04:07:54;;;;;;;4.60;3.27;;;2.00;99.90;;;;;;4999839;28;20469;-69
2021/11/30 04:10:20;;;;;;;2.77;2.57;;;2.00;99.90;;;;;;5002776;28;20238;-70
2021/11/30 04:12:46;;;;;;;6.80;2.73;;;1.90;99.90;;;;;;4995731;28;20171;-69
2021/11/30 04:15:11;;;;;;;4.87;3.13;;;1.90;99.90;;;;;;4993870;28;20207;-69
2021/11/30 04:17:40;;;;;;;3.37;2.80;;;1.90;99.90;;;;;;5007250;28;20180;-70
2021/11/30 04:20:13;;;;;;;3.60;2.70;;;1.90;99.90;;;;;;5004528;28;20175;-68
2021/11/30 04:22:40;;;;;;;3.33;3.00;;;1.90;99.90;;;;;;4996070;28;20433;-69
2021/11/30 04:25:08;;;;;;;5.77;3.93;;;1.90;99.90;;;;;;4997815;28;20869;-69
2021/11/30 04:27:34;;;;;;;3.73;2.80;;;1.90;99.90;;;;;;4996681;28;20952;-69
2021/11/30 04:29:59;;;;;;;4.00;3.50;;;1.90;99.90;;;;;;4995691;28;20812;-69
2021/11/30 04:32:25;;;;;;;3.47;3.17;;;1.90;99.90;;;;;;4994976;28;20450;-69
2021/11/30 04:34:51;;;;;;;3.30;2.90;;;1.90;99.90;;;;;;5000086;28;20214;-69
2021/11/30 04:37:17;;;;;;;3.90;3.43;;;1.80;99.90;;;;;;5006259;28;20438;-69
2021/11/30 04:39:43;;;;;;;3.03;2.77;;;1.80;99.90;;;;;;5006172;28;20476;-69
2021/11/30 04:42:08;;;;;;;3.50;3.20;;;1.80;99.90;;;;;;5001231;28;20554;-70
2021/11/30 04:44:36;;;;;;;4.10;3.13;;;1.70;99.90;;;;;;4995053;28;20191;-69
2021/11/30 04:47:11;;;;;;;3.23;3.03;;;1.70;99.90;;;;;;4997000;28;20408;-70
2021/11/30 04:49:54;;;;;;;4.87;3.57;;;1.70;99.90;;;;;;5002084;28;20489;-70
2021/11/30 04:52:20;;;;;;;4.77;4.27;;;1.70;99.90;;;;;;4994651;28;20458;-69
2021/11/30 04:54:45;;;;;;;3.67;3.33;;;1.70;99.90;;;;;;4994616;28;20486;-70
2021/11/30 04:57:11;;;;;;;3.77;3.47;;;1.60;99.90;;;;;;4993642;28;20274;-70
2021/11/30 04:59:36;;;;;;;3.63;3.33;;;1.60;99.90;;;;;;5002203;28;20180;-69
2021/11/30 05:02:03;;;;;;;5.00;3.10;;;1.70;99.90;;;;;;4991737;28;20186;-70
2021/11/30 05:04:30;;;;;;;3.40;3.10;;;1.70;99.90;;;;;;4994799;28;20641;-70
2021/11/30 05:06:56;;;;;;;6.80;3.50;;;1.70;99.90;;;;;;4993557;28;20431;-69
2021/11/30 05:09:21;;;;;;;3.13;2.67;;;1.70;99.90;;;;;;5004237;28;20461;-70
2021/11/30 05:11:47;;;;;;;3.77;3.47;;;1.70;99.90;;;;;;5001055;28;20471;-70
2021/11/30 05:14:12;;;;;;;5.10;3.47;;;1.70;99.90;;;;;;5001114;28;20187;-70
2021/11/30 05:16:39;;;;;;;5.63;3.60;;;1.70;99.90;;;;;;5013031;28;20211;-70
2021/11/30 05:19:05;;;;;;;6.47;3.50;;;1.70;99.90;;;;;;5013767;28;20270;-70
2021/11/30 05:21:31;;;;;;;4.23;3.77;;;1.70;99.90;;;;;;4999232;28;20525;-70
2021/11/30 05:24:01;;;;;;;5.43;3.90;;;1.60;99.90;;;;;;4994338;28;20995;-70
2021/11/30 05:26:27;;;;;;;6.00;3.80;;;1.60;99.90;;;;;;4995923;28;20218;-72
2021/11/30 05:28:53;;;;;;;4.70;4.20;;;1.60;99.90;;;;;;5008789;28;20446;-72
2021/11/30 05:31:19;;;;;;;4.70;4.17;;;1.50;99.90;;;;;;5005389;28;20471;-72
2021/11/30 05:33:47;;;;;;;5.80;4.07;;;1.50;99.90;;;;;;5002233;28;20450;-72
2021/11/30 05:36:13;;;;;;;6.10;4.90;;;1.50;99.90;;;;;;5002676;28;20200;-71
2021/11/30 05:38:39;;;;;;;5.90;4.70;;;1.50;99.90;;;;;;4996144;28;20484;-71
2021/11/30 05:41:05;;;;;;;7.80;4.30;;;1.40;99.90;;;;;;4998153;28;20481;-72
2021/11/30 05:43:30;;;;;;;5.30;4.83;;;1.40;99.90;;;;;;4993886;28;20971;-72
2021/11/30 05:45:56;;;;;;;5.77;4.83;;;1.40;99.90;;;;;;4993322;28;20188;-72
2021/11/30 05:48:21;;;;;;;9.20;5.77;;;1.30;99.90;;;;;;4999037;28;20225;-72
2021/11/30 05:50:47;;;;;;;5.80;4.63;;;1.30;99.90;;;;;;5008798;28;20569;-72
2021/11/30 05:53:12;;;;;;;6.17;5.27;;;1.40;99.90;;;;;;4993649;28;20191;-72
2021/11/30 05:55:38;;;;;;;10.50;5.60;;;1.30;99.90;;;;;;5003128;28;20676;-72
2021/11/30 05:58:05;;;;;;;9.10;5.97;;;1.30;99.90;;;;;;5006517;28;20178;-72
2021/11/30 06:00:32;;;;;;;5.03;4.50;;;1.40;99.90;;;;;;4996639;28;20175;-72
2021/11/30 06:05:31;;;;;;;8.40;5.27;;;1.30;99.90;;;;;;5000465;28;20462;-72
2021/11/30 06:07:58;;;;;;;6.83;5.13;;;1.40;99.90;;;;;;4994158;28;20533;-72
2021/11/30 06:10:24;;;;;;;8.00;4.93;;;1.40;99.90;;;;;;4997061;28;20439;-72
2021/11/30 06:12:50;;;;;;;7.10;5.40;;;1.30;99.90;;;;;;4999254;28;20503;-71
2021/11/30 06:15:16;;;;;;;7.07;5.23;;;1.30;99.90;;;;;;5006233;28;20475;-73
2021/11/30 06:17:42;;;;;;;5.80;4.80;;;1.40;99.90;;;;;;5002857;28;20190;-74
2021/11/30 06:20:10;;;;;;;7.20;5.50;;;1.30;99.90;;;;;;4999954;28;20206;-74
2021/11/30 06:22:36;;;;;;;7.13;5.60;;;1.30;99.90;;;;;;5007903;28;20458;-71
2021/11/30 06:25:03;;;;;;;6.10;5.50;;;1.30;99.90;;;;;;4992651;28;20520;-72
2021/11/30 06:27:29;;;;;;;6.90;6.20;;;1.30;99.90;;;;;;4994258;28;20438;-70
2021/11/30 06:29:54;;;;;;;5.80;5.20;;;1.30;99.90;;;;;;4997669;28;20445;-70
2021/11/30 06:32:20;;;;;;;7.33;5.50;;;1.30;99.90;;;;;;4992951;28;20603;-72
2021/11/30 06:34:46;;;;;;;8.20;6.17;;;1.20;99.90;;;;;;4992973;28;20258;-72
2021/11/30 06:37:11;;;;;;;6.53;5.80;;;1.20;99.90;;;;;;4992916;28;20176;-72
2021/11/30 06:39:37;;;;;;;9.10;5.23;;;1.20;99.90;;;;;;4993057;28;20175;-72
2021/11/30 06:42:04;;;;;;;15.73;5.17;;;1.10;99.90;;;;;;4993029;28;20172;-72
2021/11/30 06:44:32;;;;;;;8.03;5.60;;;1.10;99.90;;;;;;4992984;28;20238;-72
2021/11/30 06:46:58;;;;;;;14.50;5.63;;;1.10;99.90;;;;;;4992705;28;20423;-72
2021/11/30 06:49:23;;;;;;;6.80;5.60;;;1.10;99.90;;;;;;4992944;28;20806;-72
2021/11/30 06:51:49;;;;;;;13.23;7.77;;;1.10;99.90;;;;;;4992892;28;20187;-72
2021/11/30 06:54:14;;;;;;;11.23;6.20;;;1.10;99.90;;;;;;4992893;28;20182;-73
2021/11/30 06:56:40;;;;;;;8.40;5.63;;;1.10;99.90;;;;;;4992416;28;20214;-73
2021/11/30 06:59:05;;;;;;;11.20;7.10;;;1.10;99.90;;;;;;4992828;28;20190;-72
2021/11/30 07:01:33;;;;;;;7.87;6.17;;;1.10;99.90;;;;;;4992174;28;20176;-73
2021/11/30 07:04:00;;;;;;;5.93;5.30;;;1.10;99.90;;;;;;4992631;28;20211;-72
2021/11/30 07:06:38;;;;;;;7.43;6.00;;;1.00;99.90;;;;;;4992377;28;20458;-73
2021/11/30 07:14:15;;;;;;;4.90;4.40;;;1.10;99.90;;;;;;4992854;28;20881;-73
2021/11/30 07:16:41;;;;;;;7.70;5.93;;;1.10;99.90;;;;;;4992140;28;20203;-73
2021/11/30 07:19:07;;;;;;;14.37;5.80;;;1.10;99.90;;;;;;4991241;28;20422;-73
2021/11/30 07:21:32;;;;;;;5.00;4.47;;;1.20;99.90;;;;;;4992577;28;20172;-72
2021/11/30 07:23:59;;;;;;;7.87;4.63;;;1.20;99.90;;;;;;4992419;28;20523;-73
2021/11/30 07:26:25;;;;;;;6.73;3.90;;;1.20;99.90;;;;;;4992170;28;20218;-73
2021/11/30 07:28:52;;;;;;;6.07;4.67;;;1.20;99.90;;;;;;4992459;28;20422;-73
2021/11/30 07:31:18;;;;;;;5.83;5.10;;;1.20;99.90;;;;;;4992415;28;20535;-73
2021/11/30 07:33:47;;;;;;;5.17;4.30;;;1.20;99.90;;;;;;4991317;28;20445;-73
2021/11/30 07:36:15;;;;;;;9.87;5.00;;;1.20;99.90;;;;;;4974125;28;20481;-68
2021/11/30 07:38:43;;;;;;;6.23;4.23;;;1.20;99.90;;;;;;4960086;28;20422;-71
2021/11/30 07:41:10;;;;;;;4.23;3.87;;;1.20;99.90;;;;;;4991726;28;20419;-73
2021/11/30 07:43:36;;;;;;;7.77;3.80;;;1.30;99.90;;;;;;4992270;28;20422;-73
2021/11/30 07:46:03;;;;;;;4.50;3.63;;;1.30;99.90;;;;;;4987028;28;20478;-71
2021/11/30 07:48:29;;;;;;;6.77;4.10;;;1.30;99.90;;;;;;4991634;28;20438;-72
2021/11/30 07:50:56;;;;;;;3.90;3.10;;;1.30;99.90;;;;;;4990884;28;20806;-73
2021/11/30 07:53:22;;;;;;;5.53;4.43;;;1.30;99.90;;;;;;4989010;28;20183;-73
2021/11/30 07:55:48;;;;;;;7.20;3.40;;;1.30;99.90;;;;;;4985478;28;20473;-71
2021/11/30 07:58:14;;;;;;;5.80;3.13;;;1.40;99.90;;;;;;4990855;28;20513;-74
2021/11/30 08:00:40;;;;;;;2.60;2.40;;;1.40;99.90;;;;;;4991037;28;20211;-73
2021/11/30 08:03:05;;;;;;;6.20;2.87;;;1.40;99.90;;;;;;4990954;28;20184;-72
2021/11/30 08:05:31;;;;;;;3.40;3.10;;;1.40;99.90;;;;;;4987222;28;20199;-70
2021/11/30 08:07:57;;;;;;;3.80;3.23;;;1.50;99.90;;;;;;4989644;28;20669;-73
2021/11/30 08:10:28;;;;;;;3.33;3.03;;;1.50;99.90;;;;;;4991057;28;20442;-74
2021/11/30 08:12:54;;;;;;;4.70;3.57;;;1.40;99.90;;;;;;4989415;28;20203;-72
2021/11/30 08:15:20;;;;;;;3.33;2.60;;;1.40;99.90;;;;;;4991337;28;20493;-72
2021/11/30 08:17:46;;;;;;;3.63;3.30;;;1.40;99.90;;;;;;4992210;28;20463;-73
2021/11/30 08:20:11;;;;;;;2.93;2.67;;;1.40;99.90;;;;;;4993301;28;20430;-73
2021/11/30 08:22:39;;;;;;;5.50;2.60;;;1.40;99.90;;;;;;4994434;28;20425;-73
2021/11/30 08:25:06;;;;;;;3.60;2.63;;;1.50;99.90;;;;;;4993948;28;20611;-73
2021/11/30 08:27:32;;;;;;;4.33;2.43;;;1.50;99.90;;;;;;4990870;28;20987;-74
2021/11/30 08:29:58;;;;;;;3.00;2.70;;;1.50;99.90;;;;;;4994396;28;20434;-73
2021/11/30 08:32:24;;;;;;;6.93;2.93;;;1.60;99.90;;;;;;4994361;28;21012;-73
2021/11/30 08:34:51;;;;;;;3.10;2.87;;;1.60;99.90;;;;;;4994003;28;20196;-74
2021/11/30 08:37:17;;;;;;;5.80;3.93;;;1.60;99.90;;;;;;4990507;28;20596;-74
2021/11/30 08:39:43;;;;;;;3.33;2.60;;;1.60;99.90;;;;;;4994159;28;20439;-74
2021/11/30 08:42:11;;;;;;;3.40;3.10;;;1.70;99.90;;;;;;4994207;28;20793;-74
2021/11/30 08:44:37;;;;;;;4.10;3.00;;;1.70;99.90;;;;;;4994155;28;20175;-73
2021/11/30 08:47:06;;;;;;;3.10;2.40;;;1.70;99.90;;;;;;4982606;28;20549;-73
2021/11/30 08:49:32;;;;;;;4.07;3.50;;;1.70;99.90;;;;;;4989986;28;20435;-74
2021/11/30 08:51:58;;;;;;;2.83;2.53;;;1.70;99.90;;;;;;4990354;28;20441;-74
2021/11/30 08:54:26;;;;;;;3.00;2.80;;;1.80;99.90;;;;;;4991679;28;20214;-73
2021/11/30 08:56:52;;;;;;;3.03;2.77;;;1.90;99.90;;;;;;4988061;28;20474;-73
2021/11/30 08:59:18;;;;;;;5.70;3.27;;;1.90;99.90;;;;;;4991761;28;20427;-72
2021/11/30 09:01:44;;;;;;;3.13;2.43;;;1.90;99.90;;;;;;4991459;28;20450;-71
2021/11/30 09:04:09;;;;;;;2.77;2.53;;;1.90;99.90;;;;;;4991662;28;20453;-73
2021/11/30 09:06:35;;;;;;;2.93;2.20;;;1.90;99.90;;;;;;4987821;28;20246;-74
2021/11/30 09:09:03;;;;;;;2.87;2.47;;;1.90;99.90;;;;;;4991743;28;20625;-73
2021/11/30 09:11:29;;;;;;;3.73;2.87;;;2.00;99.90;;;;;;4991547;28;20570;-72
2021/11/30 09:13:54;;;;;;;2.23;2.03;;;2.00;99.90;;;;;;4991469;28;20762;-73
2021/11/30 09:16:21;;;;;;;2.37;1.90;;;2.00;99.90;;;;;;4987280;28;20684;-73
2021/11/30 09:18:47;;;;;;;2.03;1.87;;;2.10;99.90;;;;;;4991082;28;20178;-73
2021/11/30 09:21:13;;;;;;;2.50;2.30;;;2.10;99.90;;;;;;4991395;28;20823;-74
2021/11/30 09:23:39;;;;;;;3.37;2.43;;;2.10;99.90;;;;;;4991212;28;20422;-73
2021/11/30 09:26:04;;;;;;;3.53;1.93;;;2.10;99.90;;;;;;4986360;28;20219;-73
2021/11/30 09:28:30;;;;;;;1.53;1.43;;;2.10;99.90;;;;;;4991036;28;20175;-72
2021/11/30 09:30:55;;;;;;;4.07;2.87;;;2.10;99.90;;;;;;4989753;28;20184;-73
2021/11/30 09:33:21;;;;;;;2.43;2.23;;;2.20;99.90;;;;;;4991059;28;20182;-70
2021/11/30 09:35:46;;;;;;;2.13;2.00;;;2.20;99.90;;;;;;4985600;28;20306;-73
2021/11/30 09:38:12;;;;;;;2.10;1.90;;;2.20;99.90;;;;;;4990967;28;20179;-73
2021/11/30 09:40:38;;;;;;;1.90;1.80;;;2.30;99.90;;;;;;4991316;28;20512;-71
2021/11/30 09:43:07;;;;;;;3.93;3.60;;;2.30;99.90;;;;;;4991301;28;20175;-72
2021/11/30 09:45:38;;;;;;;2.83;1.60;;;2.30;99.90;;;;;;4985782;28;20454;-71
2021/11/30 09:48:09;;;;;;;1.60;1.50;;;2.30;99.90;;;;;;4990353;28;20857;-73
2021/11/30 09:50:35;;;;;;;2.20;2.00;;;2.40;99.90;;;;;;4990705;28;20796;-74
2021/11/30 09:53:01;;;;;;;3.37;2.37;;;2.40;99.90;;;;;;4989372;28;20978;-73
2021/11/30 09:55:27;;;;;;;2.50;2.30;;;2.50;99.90;;;;;;4987753;28;20462;-71
2021/11/30 09:57:53;;;;;;;2.47;2.27;;;2.40;99.90;;;;;;4989176;28;20180;-74
2021/11/30 10:00:21;;;;;;;2.50;1.83;;;2.40;99.90;;;;;;4990565;28;20434;-72
2021/11/30 10:02:48;;;;;;;1.97;1.77;;;2.40;99.90;;;;;;4990617;28;20453;-72
2021/11/30 10:05:13;;;;;;;2.23;1.70;;;2.40;99.90;;;;;;4990047;28;20760;-71
2021/11/30 10:07:50;;;;;;;2.50;1.50;;;2.40;99.90;;;;;;4987267;28;20435;-73
2021/11/30 10:10:19;;;;;;;1.67;1.30;;;2.40;99.90;;;;;;4990263;28;20229;-72
2021/11/30 10:13:13;;;;;;;3.50;2.10;;;2.50;99.90;;;;;;4990267;28;20433;-72
2021/11/30 10:15:55;;;;;;;1.73;1.20;;;2.50;99.90;;;;;;4985021;28;20570;-73
2021/11/30 10:18:33;;;;;;;1.90;1.40;;;2.50;99.90;;;;;;4990251;28;20518;-71
2021/11/30 10:21:23;;;;;;;1.47;1.37;;;2.60;99.90;;;;;;4990434;28;20434;-72
2021/11/30 10:23:52;;;;;;;1.60;1.33;;;2.60;99.90;;;;;;4988401;28;20466;-72
2021/11/30 10:26:32;;;;;;;3.80;1.70;;;2.60;99.90;;;;;;4986939;28;20497;-72
2021/11/30 10:29:04;;;;;;;0.90;0.90;;;2.60;99.90;;;;;;4991700;28;20437;-71
2021/11/30 10:31:42;;;;;;;1.13;1.03;;;2.60;99.90;;;;;;4993115;28;20769;-72
2021/11/30 10:34:22;;;;;;;1.23;1.07;;;2.60;99.90;;;;;;4993177;28;20477;-71
2021/11/30 10:36:53;;;;;;;3.07;2.77;;;2.60;99.90;;;;;;4988848;28;20458;-72
2021/11/30 10:39:22;;;;;;;1.80;1.50;;;2.60;99.90;;;;;;4991905;28;20501;-71
2021/11/30 10:41:49;;;;;;;2.93;1.40;;;2.60;99.90;;;;;;4991680;28;20916;-73
2021/11/30 10:44:16;;;;;;;1.50;1.40;;;2.50;99.90;;;;;;4993083;28;20418;-73
2021/11/30 10:46:41;;;;;;;1.30;1.20;;;2.50;99.90;;;;;;4988788;28;20457;-73
2021/11/30 10:49:10;;;;;;;1.40;1.30;;;2.50;99.90;;;;;;4992882;28;20510;-73
2021/11/30 10:51:49;;;;;;;1.50;1.40;;;2.50;99.90;;;;;;4992272;28;20183;-73
2021/11/30 10:54:15;;;;;;;1.53;1.30;;;2.50;99.90;;;;;;4990956;28;20430;-72
2021/11/30 10:56:41;;;;;;;2.87;1.90;;;2.50;99.90;;;;;;4988211;28;20998;-72
2021/11/30 10:59:07;;;;;;;1.80;1.50;;;2.50;99.90;;;;;;4992549;28;20180;-71
2021/11/30 11:01:33;;;;;;;2.30;1.27;;;2.50;99.90;;;;;;4992619;28;20910;-72
2021/11/30 11:04:07;;;;;;;1.73;1.63;;;2.60;99.90;;;;;;4994211;28;20171;-72
2021/11/30 11:06:36;;;;;;;1.20;1.10;;;2.60;99.90;;;;;;4990979;28;20222;-68
2021/11/30 11:09:05;;;;;;;0.80;0.80;;;2.60;99.90;;;;;;4993564;28;20461;-72
2021/11/30 11:11:36;;;;;;;1.10;1.00;;;2.60;99.90;;;;;;4993662;28;20427;-71
2021/11/30 11:14:05;;;;;;;1.13;0.97;;;2.70;99.90;;;;;;4992706;28;20489;-71
2021/11/30 11:16:35;;;;;;;1.33;1.17;;;2.70;99.90;;;;;;4988596;28;20473;-70
2021/11/30 11:19:06;;;;;;;1.50;1.00;;;2.70;99.90;;;;;;4992352;28;20422;-70
2021/11/30 11:21:38;;;;;;;1.20;1.10;;;2.80;99.90;;;;;;4998428;28;20431;-72
2021/11/30 11:24:08;;;;;;;2.47;1.53;;;2.80;99.90;;;;;;4993300;28;20419;-70
2021/11/30 11:26:45;;;;;;;1.30;1.03;;;2.80;99.90;;;;;;4991255;28;20517;-70
2021/11/30 11:29:19;;;;;;;1.43;1.33;;;2.80;99.90;;;;;;4992445;28;20433;-70
2021/11/30 11:31:48;;;;;;;1.30;0.90;;;2.80;99.90;;;;;;4992059;28;20429;-67
2021/11/30 11:34:16;;;;;;;2.23;1.40;;;2.90;99.90;;;;;;4992441;28;20454;-70
2021/11/30 11:36:44;;;;;;;1.00;1.00;;;2.90;99.90;;;;;;4988120;28;20481;-70
2021/11/30 11:39:10;;;;;;;2.70;1.20;;;2.90;99.90;;;;;;5007400;28;20426;-71
2021/11/30 11:41:36;;;;;;;2.13;1.00;;;2.90;99.90;;;;;;4981899;28;20443;-70
2021/11/30 11:44:02;;;;;;;1.00;0.93;;;2.90;99.90;;;;;;4989018;28;20500;-69
2021/11/30 11:46:34;;;;;;;1.23;1.13;;;2.90;99.90;;;;;;4984777;28;20857;-68
2021/11/30 11:49:02;;;;;;;1.47;1.37;;;2.90;99.90;;;;;;4991432;28;20266;-69
2021/11/30 11:51:43;;;;;;;1.57;1.20;;;2.90;99.90;;;;;;4993304;28;20422;-69
2021/11/30 11:54:22;;;;;;;3.50;1.20;;;2.90;99.90;;;;;;4992955;28;20990;-68
2021/11/30 11:56:56;;;;;;;1.50;1.40;;;2.80;99.90;;;;;;4988714;28;20978;-69
2021/11/30 11:59:22;;;;;;;1.77;1.47;;;2.90;99.90;;;;;;4995905;28;20496;-69
2021/11/30 12:02:10;;;;;;;2.03;1.03;;;2.80;99.90;;;;;;4994655;28;20916;-70
2021/11/30 12:04:41;;;;;;;1.00;1.00;;;2.80;99.90;;;;;;4995778;28;20184;-70
2021/11/30 12:07:07;;;;;;;1.40;1.30;;;2.80;99.90;;;;;;4991792;28;20485;-70
2021/11/30 12:09:33;;;;;;;1.40;1.30;;;2.80;99.90;;;;;;4995722;28;20916;-69
2021/11/30 12:12:23;;;;;;;1.20;1.10;;;2.90;99.90;;;;;;4995842;28;20227;-69
2021/11/30 12:14:52;;;;;;;1.23;1.10;;;2.90;99.90;;;;;;4995656;28;20450;-70
2021/11/30 12:17:21;;;;;;;2.83;2.10;;;2.80;99.90;;;;;;4991651;28;20426;-70
2021/11/30 12:19:56;;;;;;;4.43;1.50;;;2.90;99.90;;;;;;4995677;28;20874;-70
2021/11/30 12:22:49;;;;;;;3.07;1.50;;;3.00;99.90;;;;;;4995689;28;20442;-69
2021/11/30 12:25:29;;;;;;;1.33;1.23;;;3.00;99.90;;;;;;4994115;28;20552;-69
2021/11/30 12:28:03;;;;;;;1.40;1.30;;;3.00;99.90;;;;;;4993893;28;20963;-69
2021/11/30 12:30:44;;;;;;;3.20;1.70;;;3.00;99.90;;;;;;4995411;28;20434;-69
2021/11/30 12:33:18;;;;;;;1.43;1.10;;;3.00;99.90;;;;;;4995237;28;20426;-69
2021/11/30 12:35:55;;;;;;;1.40;1.30;;;2.90;99.90;;;;;;4992632;28;20466;-70
2021/11/30 12:38:26;;;;;;;3.33;1.07;;;2.90;99.90;;;;;;4993880;28;20907;-70
2021/11/30 12:40:52;;;;;;;3.27;1.30;;;2.80;99.90;;;;;;4995476;28;20419;-70
2021/11/30 12:43:24;;;;;;;1.00;0.90;;;2.70;99.90;;;;;;4995321;28;20582;-71
2021/11/30 12:45:54;;;;;;;1.37;1.27;;;2.70;99.90;;;;;;4991725;28;20482;-70
2021/11/30 12:48:33;;;;;;;2.07;1.40;;;2.70;99.90;;;;;;4994566;28;20430;-70
2021/11/30 12:51:25;;;;;;;1.60;1.20;;;2.70;99.90;;;;;;4995111;28;20422;-70
2021/11/30 12:53:54;;;;;;;1.63;1.23;;;2.70;99.90;;;;;;4995010;28;20419;-70
2021/11/30 12:56:55;;;;;;;4.73;1.47;;;2.80;99.90;;;;;;4991474;28;20512;-70
2021/11/30 12:59:41;;;;;;;1.13;1.03;;;2.80;99.90;;;;;;4994196;28;20490;-71
2021/11/30 13:02:17;;;;;;;1.27;1.17;;;2.70;99.90;;;;;;4994961;28;20481;-70
2021/11/30 13:04:44;;;;;;;1.63;1.43;;;2.70;99.90;;;;;;4994743;28;20935;-71
2021/11/30 13:07:12;;;;;;;1.83;1.40;;;2.60;99.90;;;;;;4991212;28;20435;-70
2021/11/30 13:09:50;;;;;;;1.43;1.33;;;2.60;99.90;;;;;;4994578;28;20430;-70
2021/11/30 13:12:23;;;;;;;1.87;1.73;;;2.40;99.90;;;;;;4994756;28;20429;-71
2021/11/30 13:14:50;;;;;;;2.10;1.53;;;2.30;99.90;;;;;;4994553;28;20441;-72
2021/11/30 13:17:16;;;;;;;1.00;0.90;;;2.30;99.90;;;;;;4990669;28;20466;-71
2021/11/30 13:19:43;;;;;;;5.53;1.33;;;2.40;99.90;;;;;;4994646;28;20458;-71